createdAt,value
2023-03-31T00:02:07.357Z,97688.91
2023-03-31T00:04:34.266Z,97691.13
2023-03-31T00:07:00.967Z,97689.69
2023-03-31T00:09:29.884Z,97691.38
2023-03-31T00:11:56.771Z,97699.56
2023-03-31T00:14:23.465Z,97696.91
2023-03-31T00:16:50.531Z,97699.56
2023-03-31T00:19:20.595Z,97691.03
2023-03-31T00:21:48.725Z,97691.94
2023-03-31T00:24:16.377Z,97704.72
2023-03-31T00:26:43.881Z,97700.00
2023-03-31T00:29:13.269Z,97683.69
2023-03-31T00:31:40.040Z,97685.41
2023-03-31T00:34:07.713Z,97688.13
2023-03-31T00:36:36.781Z,97671.66
2023-03-31T00:39:15.030Z,97658.88
2023-03-31T00:41:42.307Z,97666.22
2023-03-31T00:44:24.362Z,97663.09
2023-03-31T00:47:02.219Z,97653.84
2023-03-31T00:49:38.018Z,97635.59
2023-03-31T00:52:10.700Z,97639.16
2023-03-31T00:54:39.308Z,97637.09
2023-03-31T00:57:07.959Z,97629.88
2023-03-31T00:59:38.729Z,97635.28
2023-03-31T01:02:05.702Z,97624.53
2023-03-31T01:04:37.256Z,97640.13
2023-03-31T01:07:13.653Z,97635.22
2023-03-31T01:09:41.948Z,97615.91
2023-03-31T01:12:10.991Z,97622.69
2023-03-31T01:14:37.834Z,97616.22
2023-03-31T01:17:09.618Z,97621.47
2023-03-31T01:20:16.033Z,97602.72
2023-03-31T01:23:27.067Z,97599.25
2023-03-31T01:26:12.564Z,97570.59
2023-03-31T01:28:54.415Z,97555.91
2023-03-31T01:31:44.017Z,97557.56
2023-03-31T01:34:42.870Z,97536.84
2023-03-31T01:37:30.657Z,97525.72
2023-03-31T01:40:21.514Z,97514.38
2023-03-31T01:43:06.331Z,97512.53
2023-03-31T01:45:54.698Z,97501.59
2023-03-31T01:48:39.215Z,97502.16
2023-03-31T01:51:09.671Z,97497.38
2023-03-31T01:53:43.611Z,97497.84
2023-03-31T01:56:30.392Z,97490.34
2023-03-31T01:59:11.828Z,97476.75
2023-03-31T02:02:23.386Z,97461.94
2023-03-31T02:04:59.146Z,97463.03
2023-03-31T02:07:34.242Z,97450.38
2023-03-31T02:10:07.173Z,97437.06
2023-03-31T02:12:37.823Z,97422.25
2023-03-31T02:15:09.568Z,97420.38
2023-03-31T02:17:40.426Z,97416.03
2023-03-31T02:20:12.329Z,97401.69
2023-03-31T02:22:41.591Z,97390.31
2023-03-31T02:25:11.710Z,97380.59
2023-03-31T02:27:42.242Z,97383.88
2023-03-31T02:30:10.944Z,97373.19
2023-03-31T02:32:40.492Z,97365.91
2023-03-31T02:35:14.950Z,97345.47
2023-03-31T02:37:43.359Z,97322.31
2023-03-31T02:40:22.888Z,97292.44
2023-03-31T02:42:49.828Z,97265.69
2023-03-31T02:45:41.739Z,97262.22
2023-03-31T02:48:18.800Z,97253.22
2023-03-31T02:51:01.785Z,97243.53
2023-03-31T02:53:46.846Z,97242.03
2023-03-31T02:56:44.232Z,97241.19
2023-03-31T02:59:29.316Z,97226.00
2023-03-31T03:02:15.308Z,97216.25
2023-03-31T03:04:43.219Z,97220.69
2023-03-31T03:07:31.332Z,97210.47
2023-03-31T03:10:13.970Z,97211.13
2023-03-31T03:13:01.989Z,97202.81
2023-03-31T03:15:54.605Z,97211.31
2023-03-31T03:18:21.288Z,97210.47
2023-03-31T03:20:49.312Z,97211.78
2023-03-31T03:23:17.050Z,97210.25
2023-03-31T03:25:44.314Z,97206.72
2023-03-31T03:28:11.074Z,97219.63
2023-03-31T03:30:37.850Z,97224.31
2023-03-31T03:33:06.410Z,97239.41
2023-03-31T03:35:34.038Z,97236.84
2023-03-31T03:38:00.811Z,97247.06
2023-03-31T03:40:27.451Z,97242.34
2023-03-31T03:42:54.114Z,97246.94
2023-03-31T03:45:20.768Z,97249.22
2023-03-31T03:47:47.387Z,97242.78
2023-03-31T03:50:15.996Z,97242.66
2023-03-31T03:52:43.305Z,97236.91
2023-03-31T03:55:11.925Z,97224.81
2023-03-31T03:57:38.587Z,97220.84
2023-03-31T04:00:12.343Z,97215.44
2023-03-31T04:02:39.926Z,97216.38
2023-03-31T04:05:07.038Z,97206.78
2023-03-31T04:07:33.720Z,97169.41
2023-03-31T04:10:00.744Z,97163.31
2023-03-31T04:12:27.406Z,97157.28
2023-03-31T04:14:54.105Z,97172.63
2023-03-31T04:17:33.062Z,97175.06
2023-03-31T04:20:09.365Z,97170.56
2023-03-31T04:22:40.903Z,97144.34
2023-03-31T04:25:10.596Z,97167.78
2023-03-31T04:27:37.256Z,97160.03
2023-03-31T04:30:04.181Z,97146.09
2023-03-31T04:32:32.890Z,97128.06
2023-03-31T04:35:06.594Z,97121.41
2023-03-31T04:37:34.853Z,97096.28
2023-03-31T04:40:10.765Z,97073.88
2023-03-31T04:42:37.436Z,97068.75
2023-03-31T04:45:04.546Z,97048.44
2023-03-31T04:47:31.292Z,97033.25
2023-03-31T04:49:58.019Z,97019.34
2023-03-31T04:52:24.744Z,97009.84
2023-03-31T04:54:51.442Z,97023.84
2023-03-31T04:57:18.167Z,96995.91
2023-03-31T04:59:44.883Z,97001.00
2023-03-31T05:02:11.757Z,97007.78
2023-03-31T05:04:38.840Z,97011.47
2023-03-31T05:07:05.522Z,96991.41
2023-03-31T05:09:33.511Z,96993.44
2023-03-31T05:12:01.488Z,96986.66
2023-03-31T05:14:28.151Z,96989.47
2023-03-31T05:16:58.009Z,96985.75
2023-03-31T05:19:24.916Z,96954.19
2023-03-31T05:21:51.595Z,96951.28
2023-03-31T05:24:18.309Z,96945.06
2023-03-31T05:26:52.552Z,96956.44
2023-03-31T05:29:19.581Z,96960.41
2023-03-31T05:31:46.399Z,96963.28
2023-03-31T05:34:14.206Z,96967.72
2023-03-31T05:36:40.991Z,96969.06
2023-03-31T05:39:08.714Z,96976.63
2023-03-31T05:41:35.605Z,96971.53
2023-03-31T05:44:02.326Z,96975.16
2023-03-31T05:46:28.992Z,96959.94
2023-03-31T05:48:56.557Z,96966.72
2023-03-31T05:51:23.336Z,96971.47
2023-03-31T05:53:50.596Z,96963.97
2023-03-31T05:56:17.465Z,96963.97
2023-03-31T05:58:44.131Z,96973.97
2023-03-31T06:01:19.755Z,96990.06
2023-03-31T06:03:47.162Z,96991.09
2023-03-31T06:06:14.966Z,96994.16
2023-03-31T06:08:43.028Z,96988.47
2023-03-31T06:11:12.435Z,96988.25
2023-03-31T06:13:39.900Z,96983.22
2023-03-31T06:16:07.271Z,96986.66
2023-03-31T06:18:36.460Z,96985.41
2023-03-31T06:21:03.774Z,96981.91
2023-03-31T06:23:31.266Z,96979.16
2023-03-31T06:26:04.422Z,96976.47
2023-03-31T06:28:31.235Z,96994.47
2023-03-31T06:31:07.104Z,96970.44
2023-03-31T06:33:34.861Z,96995.84
2023-03-31T06:36:04.316Z,96992.97
2023-03-31T06:38:32.063Z,96987.75
2023-03-31T06:40:59.822Z,96980.66
2023-03-31T06:43:26.961Z,96984.25
2023-03-31T06:45:54.941Z,96976.63
2023-03-31T06:48:23.114Z,96986.34
2023-03-31T06:50:50.252Z,96982.13
2023-03-31T06:53:17.020Z,96983.69
2023-03-31T06:55:43.698Z,96981.81
2023-03-31T06:58:11.877Z,96988.50
2023-03-31T07:00:38.555Z,96994.13
2023-03-31T07:03:06.707Z,96994.66
2023-03-31T07:05:33.395Z,96990.56
2023-03-31T07:08:00.715Z,96986.44
2023-03-31T07:10:29.637Z,96982.59
2023-03-31T07:12:56.453Z,96988.78
2023-03-31T07:15:23.379Z,96988.53
2023-03-31T07:17:54.025Z,96992.69
2023-03-31T07:20:21.184Z,96993.66
2023-03-31T07:22:48.760Z,96986.72
2023-03-31T07:25:17.369Z,96986.97
2023-03-31T07:27:44.379Z,96983.81
2023-03-31T07:30:17.374Z,96979.16
2023-03-31T07:32:47.429Z,96969.13
2023-03-31T07:35:14.115Z,96973.66
2023-03-31T07:37:43.538Z,96977.63
2023-03-31T07:40:21.678Z,96977.09
2023-03-31T07:42:49.402Z,96970.66
2023-03-31T07:45:16.906Z,96963.84
2023-03-31T07:47:46.506Z,96960.69
2023-03-31T07:50:14.824Z,96958.84
2023-03-31T07:52:42.994Z,96957.31
2023-03-31T07:55:10.901Z,96943.00
2023-03-31T07:57:37.967Z,96949.38
2023-03-31T08:00:08.304Z,96945.09
2023-03-31T08:02:43.927Z,96939.88
2023-03-31T08:05:12.668Z,96937.38
2023-03-31T08:07:41.691Z,96933.63
2023-03-31T08:10:12.602Z,96939.88
2023-03-31T08:12:39.276Z,96966.25
2023-03-31T08:15:06.594Z,96974.09
2023-03-31T08:17:33.380Z,96985.38
2023-03-31T08:20:03.722Z,96994.13
2023-03-31T08:22:33.091Z,96985.63
2023-03-31T08:25:03.871Z,96976.13
2023-03-31T08:27:39.460Z,96985.31
2023-03-31T08:30:08.673Z,96981.41
2023-03-31T08:32:36.074Z,96981.66
2023-03-31T08:35:03.788Z,96980.41
2023-03-31T08:37:31.560Z,96976.28
2023-03-31T08:39:58.644Z,96970.47
2023-03-31T08:42:37.291Z,96957.16
2023-03-31T08:45:28.799Z,96965.88
2023-03-31T08:48:00.945Z,96963.59
2023-03-31T08:50:32.019Z,96959.41
2023-03-31T08:53:12.913Z,96954.50
2023-03-31T08:55:51.535Z,96949.03
2023-03-31T08:58:21.164Z,96938.94
2023-03-31T09:01:06.902Z,96955.06
2023-03-31T09:04:07.173Z,96940.41
2023-03-31T09:06:39.787Z,96935.16
2023-03-31T09:09:11.380Z,96938.88
2023-03-31T09:11:58.115Z,96942.19
2023-03-31T09:14:27.914Z,96941.00
2023-03-31T09:17:08.275Z,96938.38
2023-03-31T09:19:59.913Z,96938.50
2023-03-31T09:22:33.018Z,96928.94
2023-03-31T09:25:12.463Z,96940.81
2023-03-31T09:27:42.599Z,96940.50
2023-03-31T09:30:27.243Z,96936.97
2023-03-31T09:33:12.303Z,96913.47
2023-03-31T09:35:39.146Z,96923.44
2023-03-31T09:38:05.894Z,96917.44
2023-03-31T09:40:34.216Z,96901.94
2023-03-31T09:43:08.285Z,96909.44
2023-03-31T09:45:35.783Z,96907.09
2023-03-31T09:48:07.652Z,96906.69
2023-03-31T09:50:43.333Z,96907.53
2023-03-31T09:53:18.112Z,96901.78
2023-03-31T09:55:50.655Z,96888.81
2023-03-31T09:58:17.659Z,96894.69
2023-03-31T10:00:59.160Z,96903.72
2023-03-31T10:03:29.489Z,96880.25
2023-03-31T10:05:58.953Z,96891.16
2023-03-31T10:08:33.921Z,96879.72
2023-03-31T10:11:03.840Z,96881.97
2023-03-31T10:13:58.628Z,96880.91
2023-03-31T10:16:30.294Z,96871.25
2023-03-31T10:19:31.808Z,96869.97
2023-03-31T10:22:02.817Z,96863.56
2023-03-31T10:24:38.572Z,96860.31
2023-03-31T10:27:12.500Z,96866.56
2023-03-31T10:29:39.225Z,96853.22
2023-03-31T10:32:23.066Z,96886.75
2023-03-31T10:34:50.468Z,96869.63
2023-03-31T10:37:24.073Z,96875.53
2023-03-31T10:39:59.860Z,96842.28
2023-03-31T10:42:27.961Z,96856.91
2023-03-31T10:45:35.601Z,96858.75
2023-03-31T10:48:03.985Z,96844.91
2023-03-31T10:50:36.178Z,96846.16
2023-03-31T10:53:11.928Z,96845.78
2023-03-31T10:56:04.021Z,96879.09
2023-03-31T10:58:30.644Z,96857.19
2023-03-31T11:01:12.315Z,96862.63
2023-03-31T11:04:00.545Z,96860.44
2023-03-31T11:06:48.053Z,96863.44
2023-03-31T11:09:50.479Z,96858.22
2023-03-31T11:12:34.287Z,96854.38
2023-03-31T11:15:17.729Z,96845.34
2023-03-31T11:18:00.491Z,96859.31
2023-03-31T11:20:46.021Z,96843.81
2023-03-31T11:23:42.956Z,96855.47
2023-03-31T11:26:12.563Z,96861.97
2023-03-31T11:29:02.329Z,96852.50
2023-03-31T11:31:50.081Z,96870.84
2023-03-31T11:34:45.834Z,96866.03
2023-03-31T11:37:53.705Z,96852.16
2023-03-31T11:40:58.621Z,96879.50
2023-03-31T11:43:42.782Z,96866.84
2023-03-31T11:46:33.238Z,96850.84
2023-03-31T11:49:04.572Z,96846.13
2023-03-31T11:51:40.746Z,96839.50
2023-03-31T11:54:18.172Z,96834.88
2023-03-31T11:56:45.617Z,96867.81
2023-03-31T11:59:18.091Z,96841.78
2023-03-31T12:02:02.924Z,96852.34
2023-03-31T12:04:43.180Z,96846.13
2023-03-31T12:07:36.401Z,96857.25
2023-03-31T12:10:20.758Z,96846.94
2023-03-31T12:12:55.346Z,96828.22
2023-03-31T12:15:30.397Z,96829.88
2023-03-31T12:18:09.767Z,96830.34
2023-03-31T12:20:41.196Z,96841.53
2023-03-31T12:23:20.392Z,96824.22
2023-03-31T12:26:03.953Z,96823.09
2023-03-31T12:28:33.634Z,96814.75
2023-03-31T12:31:02.622Z,96840.00
2023-03-31T12:33:34.445Z,96831.22
2023-03-31T12:36:32.213Z,96827.13
2023-03-31T12:39:08.757Z,96803.34
2023-03-31T12:42:12.731Z,96822.47
2023-03-31T12:45:27.099Z,96820.59
2023-03-31T12:48:25.712Z,96818.63
2023-03-31T12:51:06.303Z,96823.31
2023-03-31T12:53:48.158Z,96792.25
2023-03-31T12:56:14.847Z,96783.72
2023-03-31T12:58:44.855Z,96766.16
2023-03-31T13:01:17.780Z,96763.00
2023-03-31T13:03:47.743Z,96751.31
2023-03-31T13:06:29.859Z,96744.03
2023-03-31T13:09:52.861Z,96748.94
2023-03-31T13:12:22.602Z,96746.78
2023-03-31T13:14:54.287Z,96746.28
2023-03-31T13:17:24.131Z,96750.56
2023-03-31T13:19:52.237Z,96742.72
2023-03-31T13:22:36.184Z,96733.44
2023-03-31T13:25:31.302Z,96732.66
2023-03-31T13:28:04.328Z,96727.78
2023-03-31T13:30:37.157Z,96727.78
2023-03-31T13:33:24.271Z,96722.31
2023-03-31T13:36:26.692Z,96716.25
2023-03-31T13:38:56.124Z,96738.25
2023-03-31T13:41:49.009Z,96773.22
2023-03-31T13:44:38.390Z,96751.00
2023-03-31T13:47:30.130Z,96718.75
2023-03-31T13:50:21.483Z,96729.19
2023-03-31T13:53:07.944Z,96732.97
2023-03-31T13:55:58.194Z,96733.47
2023-03-31T13:58:35.500Z,96729.44
2023-03-31T14:01:20.773Z,96732.19
2023-03-31T14:04:02.759Z,96716.09
2023-03-31T14:06:41.217Z,96725.69
2023-03-31T14:09:11.945Z,96711.09
2023-03-31T14:11:38.638Z,96721.38
2023-03-31T14:14:16.297Z,96729.09
2023-03-31T14:16:56.925Z,96722.09
2023-03-31T14:19:29.627Z,96706.81
2023-03-31T14:22:21.555Z,96714.69
2023-03-31T14:25:06.515Z,96725.81
2023-03-31T14:27:43.599Z,96743.97
2023-03-31T14:30:43.079Z,96737.72
2023-03-31T14:33:18.876Z,96752.34
2023-03-31T14:36:02.012Z,96734.56
2023-03-31T14:38:29.996Z,96730.31
2023-03-31T14:41:00.831Z,96729.75
2023-03-31T14:43:36.817Z,96723.66
2023-03-31T14:46:05.909Z,96724.19
2023-03-31T14:48:45.928Z,96737.47
2023-03-31T14:51:16.061Z,96727.53
2023-03-31T14:53:45.522Z,96719.88
2023-03-31T14:56:17.019Z,96718.81
2023-03-31T14:58:49.158Z,96720.09
2023-03-31T15:01:21.188Z,96716.84
2023-03-31T15:03:48.096Z,96719.28
2023-03-31T15:06:16.378Z,96725.19
2023-03-31T15:08:43.402Z,96720.31
2023-03-31T15:11:18.618Z,96720.16
2023-03-31T15:13:57.215Z,96728.13
2023-03-31T15:16:41.543Z,96729.06
2023-03-31T15:19:15.528Z,96720.59
2023-03-31T15:21:42.865Z,96727.91
2023-03-31T15:24:13.012Z,96718.38
2023-03-31T15:26:47.379Z,96715.03
2023-03-31T15:29:22.119Z,96734.09
2023-03-31T15:31:49.444Z,96731.50
2023-03-31T15:34:28.256Z,96721.00
2023-03-31T15:36:56.664Z,96732.81
2023-03-31T15:39:26.421Z,96724.75
2023-03-31T15:41:54.080Z,96729.44
2023-03-31T15:44:38.329Z,96731.59
2023-03-31T15:47:29.365Z,96736.06
2023-03-31T15:50:08.014Z,96735.41
2023-03-31T15:52:36.741Z,96743.34
2023-03-31T15:55:23.436Z,96743.03
2023-03-31T15:57:51.329Z,96750.00
2023-03-31T16:00:33.435Z,96748.31
2023-03-31T16:03:01.874Z,96752.31
2023-03-31T16:05:53.651Z,96759.03
2023-03-31T16:08:44.799Z,96748.38
2023-03-31T16:11:17.947Z,96741.22
2023-03-31T16:13:51.592Z,96749.59
2023-03-31T16:16:22.224Z,96752.09
2023-03-31T16:18:53.306Z,96756.91
2023-03-31T16:21:27.346Z,96751.94
2023-03-31T16:23:59.234Z,96758.84
2023-03-31T16:26:27.954Z,96759.03
2023-03-31T16:28:57.441Z,96767.81
2023-03-31T16:31:28.659Z,96739.09
2023-03-31T16:33:57.111Z,96757.47
2023-03-31T16:36:23.844Z,96770.66
2023-03-31T16:38:54.763Z,96767.00
2023-03-31T16:41:23.422Z,96777.03
2023-03-31T16:43:54.707Z,96789.59
2023-03-31T16:46:23.045Z,96789.34
2023-03-31T16:48:50.249Z,96782.78
2023-03-31T16:51:17.803Z,96805.78
2023-03-31T16:53:46.104Z,96803.25
2023-03-31T16:56:13.779Z,96790.63
2023-03-31T16:58:41.480Z,96791.94
2023-03-31T17:01:09.907Z,96796.69
2023-03-31T17:03:38.379Z,96794.72
2023-03-31T17:06:08.225Z,96772.44
2023-03-31T17:08:34.936Z,96787.31
2023-03-31T17:11:04.122Z,96789.34
2023-03-31T17:13:32.539Z,96787.06
2023-03-31T17:16:15.285Z,96776.44
2023-03-31T17:18:44.597Z,96775.28
2023-03-31T17:21:13.773Z,96765.44
2023-03-31T17:23:41.418Z,96777.75
2023-03-31T17:26:10.590Z,96779.00
2023-03-31T17:28:37.697Z,96779.41
2023-03-31T17:31:19.196Z,96786.13
2023-03-31T17:33:47.344Z,96800.75
2023-03-31T17:36:15.565Z,96800.59
2023-03-31T17:38:42.756Z,96806.91
2023-03-31T17:41:12.857Z,96816.41
2023-03-31T17:43:40.081Z,96825.34
2023-03-31T17:46:12.602Z,96848.09
2023-03-31T17:48:39.934Z,96858.09
2023-03-31T17:51:09.417Z,96848.41
2023-03-31T17:53:36.776Z,96817.13
2023-03-31T17:56:04.594Z,96794.88
2023-03-31T17:58:32.275Z,96824.13
2023-03-31T18:00:59.376Z,96839.16
2023-03-31T18:03:29.349Z,96847.81
2023-03-31T18:05:56.664Z,96832.41
2023-03-31T18:08:23.326Z,96835.50
2023-03-31T18:10:50.553Z,96826.72
2023-03-31T18:13:17.412Z,96847.19
2023-03-31T18:15:51.461Z,96846.03
2023-03-31T18:18:19.149Z,96849.38
2023-03-31T18:20:45.994Z,96849.88
2023-03-31T18:23:13.074Z,96846.50
2023-03-31T18:25:43.910Z,96843.22
2023-03-31T18:28:11.011Z,96844.22
2023-03-31T18:30:38.256Z,96841.59
2023-03-31T18:33:05.761Z,96845.81
2023-03-31T18:35:33.251Z,96847.75
2023-03-31T18:37:59.982Z,96844.94
2023-03-31T18:40:27.305Z,96846.88
2023-03-31T18:42:53.945Z,96851.50
2023-03-31T18:45:20.623Z,96844.38
2023-03-31T18:47:47.582Z,96853.88
2023-03-31T18:50:15.215Z,96855.91
2023-03-31T18:52:41.940Z,96852.56
2023-03-31T18:55:09.137Z,96856.59
2023-03-31T18:57:35.774Z,96859.97
2023-03-31T19:00:03.059Z,96860.25
2023-03-31T19:02:30.006Z,96853.53
2023-03-31T19:04:56.647Z,96851.41
2023-03-31T19:07:23.256Z,96857.03
2023-03-31T19:09:49.914Z,96850.00
2023-03-31T19:12:16.605Z,96859.88
2023-03-31T19:14:43.978Z,96855.81
2023-03-31T19:17:11.643Z,96865.94
2023-03-31T19:19:38.290Z,96867.50
2023-03-31T19:22:05.169Z,96862.75
2023-03-31T19:24:31.799Z,96867.94
2023-03-31T19:26:58.526Z,96862.31
2023-03-31T19:29:27.364Z,96874.94
2023-03-31T19:31:54.093Z,96871.94
2023-03-31T19:34:21.091Z,96873.41
2023-03-31T19:36:47.900Z,96880.69
2023-03-31T19:39:14.604Z,96882.25
2023-03-31T19:41:41.262Z,96878.84
2023-03-31T19:44:07.881Z,96872.00
2023-03-31T19:46:34.564Z,96881.31
2023-03-31T19:49:01.391Z,96879.66
2023-03-31T19:51:28.166Z,96875.34
2023-03-31T19:53:54.912Z,96874.00
2023-03-31T19:56:25.067Z,96888.47
2023-03-31T19:58:52.457Z,96892.16
2023-03-31T20:01:24.833Z,96879.91
2023-03-31T20:03:55.896Z,96875.91
2023-03-31T20:06:25.527Z,96895.31
2023-03-31T20:08:54.628Z,96877.06
2023-03-31T20:11:22.225Z,96876.75
2023-03-31T20:13:49.095Z,96886.53
2023-03-31T20:16:19.040Z,96888.78
2023-03-31T20:18:56.602Z,96883.16
2023-03-31T20:21:26.269Z,96896.47
2023-03-31T20:23:53.383Z,96882.59
2023-03-31T20:26:23.789Z,96888.34
2023-03-31T20:28:51.829Z,96882.22
2023-03-31T20:31:21.060Z,96880.28
2023-03-31T20:33:48.364Z,96884.81
2023-03-31T20:36:18.114Z,96868.94
2023-03-31T20:38:46.858Z,96871.84
2023-03-31T20:41:15.542Z,96876.34
2023-03-31T20:43:42.240Z,96874.53
2023-03-31T20:46:10.259Z,96874.31
2023-03-31T20:48:48.535Z,96873.44
2023-03-31T20:51:17.426Z,96872.81
2023-03-31T20:53:46.652Z,96876.25
2023-03-31T20:56:16.750Z,96876.06
2023-03-31T20:58:44.400Z,96877.75
2023-03-31T21:01:12.973Z,96873.84
2023-03-31T21:03:40.779Z,96879.66
2023-03-31T21:06:11.662Z,96881.72
2023-03-31T21:08:42.932Z,96874.00
2023-03-31T21:11:09.940Z,96890.84
2023-03-31T21:13:37.160Z,96878.59
2023-03-31T21:16:04.837Z,96880.19
2023-03-31T21:18:33.804Z,96881.38
2023-03-31T21:21:02.750Z,96882.69
2023-03-31T21:23:30.578Z,96868.66
2023-03-31T21:26:01.686Z,96873.84
2023-03-31T21:28:31.455Z,96892.78
2023-03-31T21:31:18.735Z,96890.09
2023-03-31T21:33:47.423Z,96898.50
2023-03-31T21:36:17.729Z,96895.38
2023-03-31T21:38:45.543Z,96899.50
2023-03-31T21:41:30.583Z,96890.69
2023-03-31T21:44:00.853Z,96908.34
2023-03-31T21:46:30.561Z,96909.53
2023-03-31T21:48:57.604Z,96907.03
2023-03-31T21:51:25.031Z,96907.44
2023-03-31T21:53:55.392Z,96908.34
2023-03-31T21:56:24.418Z,96897.38
2023-03-31T21:58:51.734Z,96910.59
2023-03-31T22:01:19.248Z,96906.13
2023-03-31T22:03:46.236Z,96899.28
2023-03-31T22:06:13.160Z,96911.88
2023-03-31T22:08:41.221Z,96898.28
2023-03-31T22:11:09.873Z,96909.03
2023-03-31T22:13:37.214Z,96909.78
2023-03-31T22:16:05.392Z,96925.22
2023-03-31T22:18:32.191Z,96917.75
2023-03-31T22:20:59.135Z,96910.19
2023-03-31T22:23:27.445Z,96922.56
2023-03-31T22:25:54.516Z,96925.56
2023-03-31T22:28:21.245Z,96916.19
2023-03-31T22:30:47.966Z,96932.47
2023-03-31T22:33:14.661Z,96933.00
2023-03-31T22:35:41.462Z,96918.34
2023-03-31T22:38:08.734Z,96911.78
2023-03-31T22:40:36.238Z,96917.84
2023-03-31T22:43:03.121Z,96927.03
2023-03-31T22:45:29.904Z,96932.63
2023-03-31T22:47:56.960Z,96934.00
2023-03-31T22:50:24.300Z,96929.34
2023-03-31T22:52:51.038Z,96931.97
2023-03-31T22:55:17.868Z,96926.53
2023-03-31T22:57:44.885Z,96927.69
2023-03-31T23:00:12.677Z,96922.03
2023-03-31T23:02:39.788Z,96908.94
2023-03-31T23:05:07.219Z,96916.09
2023-03-31T23:07:33.893Z,96926.31
2023-03-31T23:10:00.600Z,96917.31
2023-03-31T23:12:28.187Z,96910.38
2023-03-31T23:14:55.296Z,96928.66
2023-03-31T23:17:21.979Z,96928.53
2023-03-31T23:19:49.263Z,96925.69
2023-03-31T23:22:16.058Z,96921.06
2023-03-31T23:24:42.742Z,96923.75
2023-03-31T23:27:09.516Z,96918.47
2023-03-31T23:29:36.615Z,96919.34
2023-03-31T23:32:03.624Z,96912.69
2023-03-31T23:34:30.484Z,96913.44
2023-03-31T23:36:57.279Z,96904.41
2023-03-31T23:39:24.080Z,96916.88
2023-03-31T23:41:51.114Z,96919.44
2023-03-31T23:44:18.050Z,96908.28
2023-03-31T23:46:45.034Z,96917.56
2023-03-31T23:49:11.883Z,96932.09
2023-03-31T23:51:38.658Z,96898.19
2023-03-31T23:54:05.305Z,96924.66
2023-03-31T23:56:32.046Z,96921.34
2023-03-31T23:58:58.976Z,96920.09
